createdAt,value
2022-10-28T00:00:25.700Z,7.87
2022-10-28T00:02:56.397Z,7.00
2022-10-28T00:05:34.768Z,7.90
2022-10-28T00:08:20.198Z,7.60
2022-10-28T00:10:52.278Z,7.83
2022-10-28T00:13:25.820Z,7.40
2022-10-28T00:15:54.824Z,7.83
2022-10-28T00:18:28.198Z,6.90
2022-10-28T00:21:07.137Z,6.83
2022-10-28T00:23:38.756Z,7.10
2022-10-28T00:26:12.786Z,7.10
2022-10-28T00:28:46.081Z,8.40
2022-10-28T00:31:19.748Z,7.50
2022-10-28T00:33:54.555Z,8.37
2022-10-28T00:36:25.578Z,8.40
2022-10-28T00:38:59.562Z,7.30
2022-10-28T00:41:35.976Z,7.47
2022-10-28T00:44:43.901Z,6.27
2022-10-28T00:47:18.027Z,6.90
2022-10-28T00:49:50.742Z,6.17
2022-10-28T00:52:25.350Z,7.30
2022-10-28T00:54:55.242Z,7.10
2022-10-28T00:57:32.328Z,7.43
2022-10-28T01:00:19.818Z,6.83
2022-10-28T01:02:52.946Z,7.57
2022-10-28T03:08:55.731Z,6.60
2022-10-28T03:11:24.759Z,6.23
2022-10-28T03:14:02.286Z,6.47
2022-10-28T03:16:36.954Z,6.27
2022-10-28T03:19:05.838Z,6.33
2022-10-28T03:21:39.556Z,6.27
2022-10-28T03:24:13.041Z,6.97
2022-10-28T03:26:43.456Z,6.70
2022-10-28T03:29:16.993Z,6.37
2022-10-28T03:31:46.004Z,6.53
2022-10-28T03:34:16.124Z,6.20
2022-10-28T03:36:58.042Z,7.00
2022-10-28T03:39:31.384Z,6.80
2022-10-28T03:42:02.252Z,6.83
2022-10-28T03:44:31.047Z,7.57
2022-10-28T03:46:59.898Z,6.90
2022-10-28T03:49:28.968Z,6.13
2022-10-28T03:51:57.884Z,6.70
2022-10-28T03:54:28.127Z,6.23
2022-10-28T03:56:57.097Z,7.07
2022-10-28T03:59:29.735Z,6.90
2022-10-28T04:01:59.765Z,6.87
2022-10-28T04:04:30.792Z,6.37
2022-10-28T04:06:59.455Z,6.73
2022-10-28T04:09:29.414Z,7.00
2022-10-28T04:11:57.782Z,5.67
2022-10-28T04:14:26.179Z,5.93
2022-10-28T04:16:54.579Z,6.00
2022-10-28T04:19:23.071Z,6.47
2022-10-28T04:21:52.007Z,6.60
2022-10-28T04:24:20.368Z,6.53
2022-10-28T04:26:50.258Z,6.93
2022-10-28T04:29:19.658Z,6.33
2022-10-28T04:31:51.358Z,5.73
2022-10-28T04:34:20.959Z,6.43
2022-10-28T04:36:49.604Z,6.07
2022-10-28T04:39:18.567Z,5.83
2022-10-28T04:41:47.342Z,6.97
2022-10-28T04:44:17.350Z,6.67
2022-10-28T04:46:45.887Z,6.87
2022-10-28T04:49:14.410Z,6.53
2022-10-28T04:51:43.026Z,6.97
2022-10-28T04:54:11.638Z,6.90
2022-10-28T04:56:40.258Z,5.97
2022-10-28T04:59:08.885Z,5.97
2022-10-28T05:01:53.257Z,6.70
2022-10-28T05:04:22.266Z,6.80
2022-10-28T05:06:50.671Z,7.27
2022-10-28T05:09:19.234Z,7.20
2022-10-28T05:11:47.866Z,7.60
2022-10-28T05:14:16.509Z,7.40
2022-10-28T05:17:06.717Z,7.20
2022-10-28T05:19:35.425Z,7.30
2022-10-28T05:22:04.231Z,6.30
2022-10-28T05:24:32.863Z,6.80
2022-10-28T05:27:02.063Z,6.77
2022-10-28T05:29:33.289Z,7.00
2022-10-28T05:32:02.309Z,6.97
2022-10-28T05:34:32.266Z,7.10
2022-10-28T05:37:01.091Z,6.80
2022-10-28T05:39:29.844Z,7.03
2022-10-28T05:41:58.432Z,8.20
2022-10-28T05:44:27.100Z,8.10
2022-10-28T22:07:57.097Z,3.53
2022-10-28T22:57:03.751Z,2.87
2022-10-28T23:01:31.353Z,3.03
2022-10-28T23:32:54.971Z,3.30
2022-10-28T23:41:17.012Z,3.37
